createdAt,value
2017-11-01T00:01:12.853Z,34.23
2017-11-01T00:03:42.924Z,33.23
2017-11-01T00:08:49.577Z,35.83
2017-11-01T00:11:19.486Z,40.40
2017-11-01T00:13:49.357Z,38.37
2017-11-01T00:16:26.935Z,37.07
2017-11-01T00:18:56.770Z,40.83
2017-11-01T00:21:26.657Z,37.07
2017-11-01T00:23:56.547Z,40.57
2017-11-01T00:26:26.420Z,35.70
2017-11-01T00:28:56.699Z,37.17
2017-11-01T00:31:26.581Z,37.87
2017-11-01T00:33:56.770Z,38.13
2017-11-01T00:36:26.668Z,37.17
2017-11-01T00:38:56.518Z,36.63
2017-11-01T00:41:26.782Z,36.17
2017-11-01T00:43:56.659Z,42.37
2017-11-01T00:46:26.534Z,41.77
2017-11-01T00:48:56.396Z,44.80
2017-11-01T00:51:27.346Z,44.70
2017-11-01T00:53:57.206Z,41.33
2017-11-01T00:56:28.288Z,45.40
2017-11-01T00:58:58.204Z,48.40
2017-11-01T01:01:28.374Z,44.40
2017-11-01T01:03:58.233Z,39.27
2017-11-01T01:06:28.195Z,43.37
2017-11-01T01:08:58.075Z,37.67
2017-11-01T01:11:28.233Z,39.03
2017-11-01T01:13:58.095Z,38.13
2017-11-01T01:16:27.983Z,43.40
2017-11-01T01:18:57.837Z,44.20
2017-11-01T01:21:28.042Z,41.93
2017-11-01T01:23:58.046Z,40.70
2017-11-01T01:26:28.031Z,44.30
2017-11-01T01:28:57.887Z,38.37
2017-11-01T01:31:28.032Z,44.07
2017-11-01T01:33:57.928Z,36.90
2017-11-01T01:36:28.140Z,37.13
2017-11-01T01:38:58.002Z,41.67
2017-11-01T01:41:28.179Z,38.53
2017-11-01T01:43:58.046Z,42.80
2017-11-01T01:46:27.942Z,37.20
2017-11-01T01:48:57.786Z,37.60
2017-11-01T01:51:28.031Z,40.57
2017-11-01T01:53:57.903Z,40.20
2017-11-01T01:56:28.334Z,33.53
2017-11-01T01:58:58.209Z,35.53
2017-11-01T02:01:28.082Z,32.80
2017-11-01T02:03:57.937Z,38.10
2017-11-01T02:06:28.123Z,34.80
2017-11-01T02:08:57.976Z,33.43
2017-11-01T02:11:28.026Z,36.03
2017-11-01T02:13:57.893Z,36.10
2017-11-01T02:16:28.086Z,35.30
2017-11-01T02:18:57.937Z,34.63
2017-11-01T02:21:27.804Z,40.83
2017-11-01T02:23:57.657Z,42.07
2017-11-01T02:26:27.849Z,34.13
2017-11-01T02:28:57.701Z,36.30
2017-11-01T02:31:27.976Z,38.57
2017-11-01T02:33:57.811Z,36.20
2017-11-01T02:36:27.682Z,38.27
2017-11-01T02:38:57.526Z,42.07
2017-11-01T02:41:27.385Z,40.10
2017-11-01T02:43:57.227Z,33.83
2017-11-01T02:46:27.074Z,39.87
2017-11-01T02:48:57.368Z,38.10
2017-11-01T02:51:27.235Z,36.90
2017-11-01T02:53:57.089Z,36.70
2017-11-01T02:56:26.935Z,34.47
2017-11-01T02:58:57.129Z,37.40
2017-11-01T03:01:27.006Z,33.90
2017-11-01T03:03:56.888Z,38.60
2017-11-01T03:06:26.735Z,40.20
2017-11-01T03:08:56.929Z,41.93
2017-11-01T03:11:26.793Z,38.90
2017-11-01T03:13:56.661Z,40.67
2017-11-01T03:16:26.506Z,42.90
2017-11-01T03:18:56.427Z,45.17
2017-11-01T03:21:26.264Z,46.17
2017-11-01T03:23:56.071Z,43.60
2017-11-01T03:26:26.182Z,52.23
2017-11-01T03:28:56.125Z,49.33
2017-11-01T03:31:26.417Z,47.37
2017-11-01T03:33:56.251Z,50.77
2017-11-01T03:36:26.460Z,48.97
2017-11-01T03:38:56.307Z,57.90
2017-11-01T03:41:26.162Z,60.33
2017-11-01T03:43:56.009Z,53.23
2017-11-01T03:46:25.848Z,57.93
2017-11-01T03:48:55.986Z,51.70
2017-11-01T03:51:25.862Z,57.97
2017-11-01T03:53:55.722Z,55.23
2017-11-01T03:56:25.561Z,59.60
2017-11-01T03:58:55.785Z,73.30
2017-11-01T04:01:25.622Z,71.17
2017-11-01T04:03:55.489Z,64.50
2017-11-01T04:06:25.336Z,62.80
2017-11-01T04:08:55.192Z,68.10
2017-11-01T04:11:25.046Z,63.00
2017-11-01T04:13:54.953Z,66.50
2017-11-01T04:16:24.824Z,60.70
2017-11-01T04:19:00.275Z,55.97
2017-11-01T04:21:30.185Z,56.10
2017-11-01T04:24:00.060Z,64.40
2017-11-01T04:26:30.260Z,62.00
2017-11-01T04:29:00.131Z,55.80
2017-11-01T04:31:30.046Z,64.80
2017-11-01T04:33:59.925Z,59.73
2017-11-01T04:36:30.074Z,62.33
2017-11-01T04:38:59.974Z,58.17
2017-11-01T04:41:29.843Z,67.07
2017-11-01T04:43:59.677Z,67.70
2017-11-01T04:46:29.593Z,64.33
2017-11-01T04:48:59.433Z,61.50
2017-11-01T04:51:31.259Z,71.63
2017-11-01T04:54:02.917Z,66.40
2017-11-01T04:56:33.230Z,76.80
2017-11-01T04:59:03.092Z,66.13
2017-11-01T05:01:32.965Z,72.50
2017-11-01T05:04:02.855Z,71.33
2017-11-01T05:06:32.985Z,67.90
2017-11-01T05:09:08.411Z,61.07
2017-11-01T05:11:39.528Z,70.23
2017-11-01T05:14:15.090Z,59.70
2017-11-01T05:16:45.589Z,67.23
2017-11-01T05:19:16.047Z,65.13
2017-11-01T05:21:46.271Z,70.70
2017-11-01T05:24:16.121Z,69.93
2017-11-01T05:26:46.313Z,75.07
2017-11-01T05:29:16.178Z,70.03
2017-11-01T05:31:46.045Z,65.27
2017-11-01T05:34:15.902Z,69.47
2017-11-01T05:36:46.037Z,70.40
2017-11-01T05:39:15.881Z,70.57
2017-11-01T05:41:45.803Z,78.43
2017-11-01T05:44:15.688Z,64.80
2017-11-01T05:46:45.551Z,66.00
2017-11-01T05:49:15.410Z,65.07
2017-11-01T05:51:46.952Z,57.67
2017-11-01T05:54:16.774Z,61.90
2017-11-01T05:56:46.687Z,57.43
2017-11-01T05:59:16.541Z,60.93
2017-11-01T06:01:46.390Z,54.80
2017-11-01T06:04:16.229Z,53.63
2017-11-01T06:06:46.068Z,55.60
2017-11-01T06:09:15.942Z,53.67
2017-11-01T06:11:45.827Z,65.60
2017-11-01T06:14:16.205Z,55.53
2017-11-01T06:16:46.082Z,51.33
2017-11-01T06:19:16.367Z,47.80
2017-11-01T06:21:46.220Z,50.90
2017-11-01T06:24:16.378Z,46.00
2017-11-01T06:26:46.229Z,48.33
2017-11-01T06:29:16.101Z,54.23
2017-11-01T06:31:45.974Z,49.33
2017-11-01T06:34:15.881Z,47.27
2017-11-01T06:36:47.665Z,45.20
2017-11-01T06:39:17.534Z,49.20
2017-11-01T06:41:47.377Z,56.73
2017-11-01T06:44:17.237Z,43.13
2017-11-01T06:46:47.111Z,38.67
2017-11-01T06:49:16.964Z,44.77
2017-11-01T06:51:47.165Z,42.00
2017-11-01T06:54:18.881Z,53.20
2017-11-01T06:56:49.141Z,43.83
2017-11-01T06:59:19.026Z,55.73
2017-11-01T07:01:48.948Z,54.57
2017-11-01T07:04:18.903Z,51.17
2017-11-01T07:06:49.503Z,52.80
2017-11-01T07:09:19.417Z,46.20
2017-11-01T07:11:49.745Z,55.23
2017-11-01T07:14:19.607Z,56.67
2017-11-01T07:16:49.836Z,53.73
2017-11-01T07:19:19.711Z,51.30
2017-11-01T07:21:49.911Z,50.90
2017-11-01T07:24:19.750Z,56.03
2017-11-01T07:26:49.893Z,46.60
2017-11-01T07:29:19.798Z,49.10
2017-11-01T07:31:49.977Z,49.53
2017-11-01T07:34:19.836Z,45.40
2017-11-01T07:36:49.989Z,60.57
2017-11-01T07:39:19.861Z,44.03
2017-11-01T07:41:49.761Z,50.00
2017-11-01T07:44:19.613Z,41.90
2017-11-01T07:46:49.614Z,48.93
2017-11-01T07:49:19.648Z,43.93
2017-11-01T07:51:49.984Z,48.20
2017-11-01T07:54:19.843Z,40.50
2017-11-01T07:56:49.753Z,45.60
2017-11-01T07:59:19.609Z,50.87
2017-11-01T08:01:49.930Z,50.57
2017-11-01T08:04:19.788Z,44.40
2017-11-01T08:06:50.308Z,59.50
2017-11-01T08:09:20.179Z,43.27
2017-11-01T08:11:50.443Z,43.07
2017-11-01T08:14:20.294Z,41.23
2017-11-01T08:16:50.577Z,49.17
2017-11-01T08:19:20.432Z,52.10
2017-11-01T08:21:50.315Z,44.07
2017-11-01T08:24:20.274Z,50.80
2017-11-01T08:26:50.208Z,51.07
2017-11-01T08:29:20.114Z,41.10
2017-11-01T08:31:49.964Z,35.20
2017-11-01T08:34:19.841Z,38.50
2017-11-01T08:36:49.682Z,41.37
2017-11-01T08:39:19.981Z,41.67
2017-11-01T08:41:49.841Z,47.20
2017-11-01T08:44:19.724Z,33.63
2017-11-01T08:46:49.576Z,41.73
2017-11-01T08:49:19.719Z,38.60
2017-11-01T08:51:49.673Z,41.40
2017-11-01T08:54:19.546Z,36.77
2017-11-01T08:56:49.402Z,35.77
2017-11-01T08:59:19.356Z,34.73
2017-11-01T09:01:49.378Z,39.10
2017-11-01T09:04:19.285Z,34.03
2017-11-01T09:06:49.190Z,38.97
2017-11-01T09:09:19.052Z,37.43
2017-11-01T09:11:48.951Z,36.17
2017-11-01T09:14:18.818Z,33.30
2017-11-01T09:16:48.977Z,33.10
2017-11-01T09:19:18.869Z,35.57
2017-11-01T09:21:49.096Z,31.27
2017-11-01T09:24:18.964Z,28.47
2017-11-01T09:26:49.181Z,36.57
2017-11-01T09:29:19.100Z,35.33
2017-11-01T09:31:49.241Z,37.13
2017-11-01T09:34:19.103Z,34.80
2017-11-01T09:36:49.316Z,34.67
2017-11-01T09:39:19.174Z,37.53
2017-11-01T09:41:49.382Z,32.30
2017-11-01T09:44:19.293Z,32.87
2017-11-01T09:46:49.160Z,41.67
2017-11-01T09:49:19.033Z,33.83
2017-11-01T09:51:49.214Z,29.23
2017-11-01T09:54:19.066Z,31.60
2017-11-01T09:56:49.278Z,29.57
2017-11-01T09:59:19.130Z,38.57
2017-11-01T10:01:49.423Z,34.73
2017-11-01T10:04:19.277Z,31.60
2017-11-01T10:06:49.675Z,30.03
2017-11-01T10:09:19.562Z,31.70
2017-11-01T10:11:49.882Z,32.60
2017-11-01T10:14:19.773Z,34.47
2017-11-01T10:16:50.014Z,36.53
2017-11-01T10:19:19.866Z,29.30
2017-11-01T10:21:49.746Z,41.63
2017-11-01T10:24:19.600Z,34.87
2017-11-01T10:26:49.772Z,37.73
2017-11-01T10:29:19.645Z,33.17
2017-11-01T10:31:49.911Z,30.47
2017-11-01T10:34:19.814Z,31.23
2017-11-01T10:36:50.084Z,33.47
2017-11-01T10:39:19.943Z,37.63
2017-11-01T10:41:49.850Z,39.00
2017-11-01T10:44:19.728Z,34.63
2017-11-01T10:46:49.611Z,33.30
2017-11-01T10:49:19.471Z,36.80
2017-11-01T10:51:49.346Z,33.10
2017-11-01T10:54:19.209Z,32.23
2017-11-01T10:56:49.161Z,32.80
2017-11-01T10:59:19.319Z,37.83
2017-11-01T11:01:49.176Z,37.07
2017-11-01T11:04:19.342Z,35.33
2017-11-01T11:06:49.202Z,40.23
2017-11-01T11:09:19.946Z,34.10
2017-11-01T11:11:49.816Z,32.80
2017-11-01T11:14:19.684Z,35.63
2017-11-01T11:16:49.583Z,43.40
2017-11-01T11:19:19.805Z,51.37
2017-11-01T11:21:49.785Z,37.83
2017-11-01T11:24:19.968Z,38.00
2017-11-01T11:26:49.838Z,35.23
2017-11-01T11:29:20.001Z,40.13
2017-11-01T11:31:49.874Z,42.63
2017-11-01T11:34:20.080Z,36.73
2017-11-01T11:36:49.939Z,41.30
2017-11-01T11:39:20.339Z,33.53
2017-11-01T11:41:50.393Z,36.03
2017-11-01T11:44:20.546Z,37.43
2017-11-01T11:46:50.458Z,44.57
2017-11-01T11:49:20.335Z,36.00
2017-11-01T11:51:50.221Z,40.67
2017-11-01T11:54:20.098Z,42.70
2017-11-01T11:56:49.983Z,43.43
2017-11-01T11:59:20.375Z,44.87
2017-11-01T12:01:50.517Z,43.60
2017-11-01T12:04:20.384Z,55.83
2017-11-01T12:06:50.256Z,43.67
2017-11-01T12:09:20.107Z,58.30
2017-11-01T12:11:49.963Z,64.47
2017-11-01T12:14:19.823Z,52.50
2017-11-01T12:16:49.689Z,54.80
2017-11-01T12:19:19.871Z,52.03
2017-11-01T12:21:49.824Z,43.93
2017-11-01T12:24:20.006Z,44.93
2017-11-01T12:26:49.982Z,53.43
2017-11-01T12:29:20.252Z,50.17
2017-11-01T12:31:50.110Z,57.00
2017-11-01T12:34:20.296Z,51.07
2017-11-01T12:36:50.202Z,60.70
2017-11-01T12:39:20.517Z,40.57
2017-11-01T12:41:50.361Z,53.87
2017-11-01T12:44:21.058Z,47.30
2017-11-01T12:46:50.950Z,55.13
2017-11-01T12:49:20.831Z,45.33
2017-11-01T12:51:51.025Z,40.83
2017-11-01T12:56:57.350Z,52.40
2017-11-01T12:59:27.219Z,44.77
2017-11-01T13:01:57.657Z,45.47
2017-11-01T13:04:27.534Z,37.90
2017-11-01T13:06:57.784Z,52.93
2017-11-01T13:09:27.667Z,46.07
2017-11-01T13:11:57.822Z,45.30
2017-11-01T13:14:27.739Z,52.77
2017-11-01T13:16:57.944Z,48.23
2017-11-01T13:19:27.803Z,45.50
2017-11-01T13:21:57.973Z,43.20
2017-11-01T13:24:27.838Z,42.80
2017-11-01T13:26:58.112Z,56.50
2017-11-01T13:29:27.969Z,44.30
2017-11-01T13:31:58.237Z,48.23
2017-11-01T13:34:28.131Z,38.83
2017-11-01T13:36:58.322Z,45.07
2017-11-01T13:39:28.196Z,39.27
2017-11-01T13:41:58.504Z,40.20
2017-11-01T13:44:28.375Z,43.87
2017-11-01T13:46:58.307Z,47.90
2017-11-01T13:49:28.160Z,43.97
2017-11-01T13:51:58.307Z,51.30
2017-11-01T13:54:28.238Z,49.77
2017-11-01T13:56:58.128Z,41.20
2017-11-01T13:59:27.999Z,47.77
2017-11-01T14:01:58.132Z,42.10
2017-11-01T14:04:27.993Z,43.23
2017-11-01T14:06:57.882Z,48.17
2017-11-01T14:09:27.758Z,47.33
2017-11-01T14:11:57.986Z,44.70
2017-11-01T14:14:27.846Z,42.63
2017-11-01T14:16:57.734Z,46.70
2017-11-01T14:19:27.602Z,45.97
2017-11-01T14:21:57.472Z,38.87
2017-11-01T14:24:27.341Z,41.87
2017-11-01T14:26:57.313Z,51.43
2017-11-01T14:29:27.182Z,40.03
2017-11-01T14:31:57.057Z,41.43
2017-11-01T14:34:26.955Z,41.40
2017-11-01T14:36:56.798Z,48.43
2017-11-01T14:39:26.767Z,35.43
2017-11-01T14:41:56.632Z,49.47
2017-11-01T14:44:26.538Z,42.30
2017-11-01T14:46:56.475Z,45.27
2017-11-01T14:49:26.365Z,42.13
2017-11-01T14:51:56.225Z,50.53
2017-11-01T14:54:26.093Z,42.20
2017-11-01T14:56:55.994Z,39.97
2017-11-01T14:59:26.193Z,41.10
2017-11-01T15:01:56.577Z,47.73
2017-11-01T15:04:26.523Z,46.23
2017-11-01T15:06:56.829Z,55.43
2017-11-01T15:09:26.684Z,48.37
2017-11-01T15:11:56.871Z,47.40
2017-11-01T15:14:26.713Z,49.43
2017-11-01T15:16:56.972Z,61.67
2017-11-01T15:19:26.887Z,42.30
2017-11-01T15:21:57.060Z,45.53
2017-11-01T15:24:26.947Z,45.20
2017-11-01T15:26:57.129Z,50.20
2017-11-01T15:29:26.989Z,43.10
2017-11-01T15:31:57.261Z,43.70
2017-11-01T15:34:27.121Z,43.27
2017-11-01T15:36:57.023Z,39.87
2017-11-01T15:39:26.903Z,49.07
2017-11-01T15:41:57.127Z,44.77
2017-11-01T15:44:26.992Z,68.97
2017-11-01T15:46:57.167Z,46.00
2017-11-01T15:49:27.401Z,54.07
2017-11-01T15:51:57.666Z,54.67
2017-11-01T15:54:27.529Z,68.37
2017-11-01T15:56:57.421Z,57.50
2017-11-01T15:59:27.327Z,63.90
2017-11-01T16:01:57.410Z,65.63
2017-11-01T16:04:27.303Z,63.83
2017-11-01T16:06:57.182Z,62.90
2017-11-01T16:09:27.117Z,67.60
2017-11-01T16:11:57.335Z,58.30
2017-11-01T16:14:27.531Z,72.43
2017-11-01T16:16:57.422Z,68.93
2017-11-01T16:19:27.314Z,77.90
2017-11-01T16:21:57.201Z,72.23
2017-11-01T16:24:27.244Z,63.67
2017-11-01T16:26:57.299Z,72.07
2017-11-01T16:29:27.156Z,66.63
2017-11-01T16:31:57.034Z,85.37
2017-11-01T16:34:26.913Z,86.07
2017-11-01T16:36:56.816Z,72.87
2017-11-01T16:39:26.705Z,80.70
2017-11-01T16:41:56.624Z,84.47
2017-11-01T16:44:26.492Z,73.67
2017-11-01T16:46:56.453Z,93.53
2017-11-01T16:49:26.313Z,70.73
2017-11-01T16:51:56.170Z,76.63
2017-11-01T16:54:26.071Z,76.63
2017-11-01T16:56:55.953Z,68.93
2017-11-01T16:59:26.214Z,86.57
2017-11-01T17:01:56.090Z,75.63
2017-11-01T17:04:26.329Z,69.20
2017-11-01T17:06:56.185Z,83.93
2017-11-01T17:09:26.978Z,69.43
2017-11-01T17:11:58.127Z,69.67
2017-11-01T17:14:28.337Z,69.77
2017-11-01T17:16:58.198Z,76.67
2017-11-01T17:19:28.467Z,80.33
2017-11-01T17:21:58.430Z,71.17
2017-11-01T17:24:28.642Z,71.97
2017-11-01T17:26:58.603Z,80.13
2017-11-01T17:29:28.752Z,69.23
2017-11-01T17:31:58.643Z,64.67
2017-11-01T17:34:28.886Z,69.30
2017-11-01T17:36:58.791Z,72.83
2017-11-01T17:39:29.013Z,70.20
2017-11-01T17:41:58.913Z,75.70
2017-11-01T17:44:28.816Z,68.93
2017-11-01T17:46:58.666Z,66.90
2017-11-01T17:49:28.806Z,67.97
2017-11-01T17:51:58.680Z,73.57
2017-11-01T17:54:28.912Z,60.47
2017-11-01T17:56:58.823Z,59.20
2017-11-01T17:59:28.733Z,65.30
2017-11-01T18:01:58.594Z,61.57
2017-11-01T18:04:28.489Z,61.23
2017-11-01T18:06:58.350Z,72.57
2017-11-01T18:09:28.227Z,58.90
2017-11-01T18:11:58.107Z,59.70
2017-11-01T18:14:28.036Z,61.70
2017-11-01T18:16:58.184Z,74.13
2017-11-01T18:19:28.039Z,59.77
2017-11-01T18:21:57.929Z,59.43
2017-11-01T18:24:27.810Z,53.43
2017-11-01T18:26:59.725Z,66.10
2017-11-01T18:29:30.009Z,58.80
2017-11-01T18:31:59.905Z,67.83
2017-11-01T18:34:29.773Z,61.90
2017-11-01T18:36:59.994Z,59.50
2017-11-01T18:39:29.966Z,71.70
2017-11-01T18:42:00.334Z,67.77
2017-11-01T18:44:30.195Z,72.43
2017-11-01T18:47:00.470Z,72.80
2017-11-01T18:49:30.431Z,58.10
2017-11-01T18:52:00.715Z,66.73
2017-11-01T18:54:30.644Z,63.70
2017-11-01T18:57:00.845Z,65.60
2017-11-01T18:59:30.774Z,58.57
2017-11-01T19:02:00.973Z,67.73
2017-11-01T19:04:30.867Z,68.20
2017-11-01T19:07:00.808Z,64.90
2017-11-01T19:09:30.719Z,64.00
2017-11-01T19:12:00.975Z,59.00
2017-11-01T19:14:30.873Z,58.37
2017-11-01T19:17:00.814Z,55.20
2017-11-01T19:19:30.693Z,62.30
2017-11-01T19:22:00.587Z,60.40
2017-11-01T19:24:30.462Z,67.27
2017-11-01T19:27:00.347Z,56.23
2017-11-01T19:29:30.227Z,64.70
2017-11-01T19:32:00.095Z,53.97
2017-11-01T19:34:30.361Z,62.53
2017-11-01T19:37:00.371Z,60.57
2017-11-01T19:39:30.246Z,63.23
2017-11-01T19:42:00.120Z,56.83
2017-11-01T19:44:30.068Z,50.90
2017-11-01T19:46:59.934Z,54.80
2017-11-01T19:49:29.840Z,59.10
2017-11-01T19:51:59.733Z,74.20
2017-11-01T19:54:29.645Z,59.50
2017-11-01T19:56:59.667Z,59.80
2017-11-01T19:59:29.915Z,66.20
2017-11-01T20:01:59.813Z,62.53
2017-11-01T20:04:29.785Z,56.10
2017-11-01T20:06:59.744Z,58.93
2017-11-01T20:09:29.702Z,60.93
2017-11-01T20:11:59.570Z,54.50
2017-11-01T20:14:29.623Z,63.27
2017-11-01T20:17:00.409Z,53.00
2017-11-01T20:19:30.331Z,61.53
2017-11-01T20:22:00.232Z,67.37
2017-11-01T20:24:30.133Z,66.37
2017-11-01T20:27:00.018Z,62.20
2017-11-01T20:29:29.924Z,69.07
2017-11-01T20:31:59.800Z,73.07
2017-11-01T20:34:29.715Z,62.07
2017-11-01T20:36:59.763Z,56.30
2017-11-01T20:39:29.672Z,70.40
2017-11-01T20:41:59.555Z,70.40
2017-11-01T20:44:29.722Z,65.43
2017-11-01T20:46:59.595Z,75.87
2017-11-01T20:49:29.484Z,77.07
2017-11-01T20:51:59.378Z,66.20
2017-11-01T20:54:29.394Z,66.50
2017-11-01T20:56:59.266Z,74.77
2017-11-01T20:59:29.252Z,62.53
2017-11-01T21:01:59.145Z,78.03
2017-11-01T21:04:29.121Z,62.83
2017-11-01T21:06:59.142Z,65.80
2017-11-01T21:09:29.202Z,71.07
2017-11-01T21:11:59.081Z,58.70
2017-11-01T21:14:29.114Z,64.20
2017-11-01T21:16:59.193Z,65.13
2017-11-01T21:19:29.065Z,56.80
2017-11-01T21:21:59.112Z,65.43
2017-11-01T21:24:29.017Z,64.40
2017-11-01T21:26:58.929Z,60.10
2017-11-01T21:29:28.878Z,72.90
2017-11-01T21:31:58.890Z,60.47
2017-11-01T21:34:28.787Z,56.83
2017-11-01T21:36:58.753Z,60.50
2017-11-01T21:39:28.718Z,64.80
2017-11-01T21:41:58.626Z,63.53
2017-11-01T21:44:29.453Z,61.30
2017-11-01T21:46:59.334Z,64.23
2017-11-01T21:49:29.246Z,67.17
2017-11-01T21:51:59.158Z,58.77
2017-11-01T21:54:29.150Z,62.20
2017-11-01T21:57:00.198Z,53.50
2017-11-01T21:59:30.087Z,51.77
2017-11-01T22:01:59.987Z,46.80
2017-11-01T22:04:29.883Z,52.03
2017-11-01T22:06:59.790Z,55.60
2017-11-01T22:09:29.690Z,32.63
2017-11-01T22:11:59.618Z,36.10
2017-11-01T22:14:29.485Z,31.10
2017-11-01T22:16:59.431Z,23.00
2017-11-01T22:19:29.311Z,19.90
2017-11-01T22:21:59.188Z,24.27
2017-11-01T22:24:29.069Z,24.33
2017-11-01T22:26:58.908Z,27.67
2017-11-01T22:29:28.839Z,31.20
2017-11-01T22:31:58.696Z,18.60
2017-11-01T22:34:28.586Z,19.30
2017-11-01T22:36:58.452Z,16.90
2017-11-01T22:39:28.469Z,21.40
2017-11-01T22:41:59.053Z,21.33
2017-11-01T22:44:28.947Z,25.23
2017-11-01T22:46:58.829Z,17.77
2017-11-01T22:49:28.707Z,24.93
2017-11-01T22:51:58.562Z,20.60
2017-11-01T22:54:28.446Z,24.40
2017-11-01T22:56:58.382Z,26.53
2017-11-01T22:59:28.382Z,27.00
2017-11-01T23:01:58.247Z,26.90
2017-11-01T23:04:28.119Z,29.07
2017-11-01T23:06:58.090Z,27.40
2017-11-01T23:09:27.939Z,32.60
2017-11-01T23:11:57.800Z,33.70
2017-11-01T23:14:27.666Z,40.33
2017-11-01T23:16:57.828Z,41.23
2017-11-01T23:19:27.702Z,45.57
2017-11-01T23:21:57.585Z,39.30
2017-11-01T23:24:27.473Z,51.93
2017-11-01T23:26:57.531Z,56.67
2017-11-01T23:29:27.481Z,56.50
2017-11-01T23:31:57.327Z,63.17
2017-11-01T23:34:27.205Z,66.80
2017-11-01T23:36:57.086Z,71.17
2017-11-01T23:39:27.051Z,62.40
2017-11-01T23:41:56.899Z,66.90
2017-11-01T23:44:26.787Z,68.23
2017-11-01T23:46:56.670Z,65.43
2017-11-01T23:49:26.579Z,67.53
2017-11-01T23:51:56.467Z,65.77
2017-11-01T23:54:26.331Z,65.07
2017-11-01T23:56:56.235Z,68.87
2017-11-01T23:59:26.089Z,48.90
